Clearwater, South Carolina
Current Conditions -  °F | °C
As of 9:01 AM on Monday 24 Nov 2014 (Local Time) from KDNL Reporting Station
Overcast Overcast  
Wind Chill: 66°   Ceiling: 700
Heat Index: 66°   Visibility: 7mi
Dew Point: 65°   Wind: 6mph
Humidity: 96%   Direction: 170°S
Pressure: 29.86"   Gusts: NA
Location:  33.51°N, 81.91°W
Report Text: KDNL 241401Z AUTO 17005KT 7SM BKN007 OVC070 19/18 A2986 RMK AO2 T01890183
Loading
Personal Weather Stations






























Interactive Weather Map New forecast layout! Learn more

10-Day Weather Forecast

Advertisements
Track Severe Weather on mobile